createdAt,value
2023-04-18T00:00:02.014Z,1008.75
2023-04-18T00:01:02.045Z,1008.71
2023-04-18T00:02:02.236Z,1008.71
2023-04-18T00:03:04.136Z,1008.70
2023-04-18T00:04:02.445Z,1008.68
2023-04-18T00:05:02.627Z,1008.69
2023-04-18T00:06:02.439Z,1008.70
2023-04-18T00:07:02.470Z,1008.66
2023-04-18T00:08:02.557Z,1008.68
2023-04-18T00:09:02.661Z,1008.73
2023-04-18T00:10:02.733Z,1008.70
2023-04-18T00:11:02.825Z,1008.68
2023-04-18T00:12:02.910Z,1008.69
2023-04-18T00:13:02.998Z,1008.68
2023-04-18T00:14:03.092Z,1008.68
2023-04-18T00:15:03.137Z,1008.68
2023-04-18T00:16:03.256Z,1008.65
2023-04-18T00:17:03.371Z,1008.65
2023-04-18T00:18:03.448Z,1008.67
2023-04-18T00:19:03.457Z,1008.66
2023-04-18T00:20:03.570Z,1008.63
2023-04-18T00:21:03.668Z,1008.61
2023-04-18T00:22:03.731Z,1008.61
2023-04-18T00:23:03.807Z,1008.58
2023-04-18T00:24:03.900Z,1008.61
2023-04-18T00:25:03.959Z,1008.60
2023-04-18T00:26:04.060Z,1008.58
2023-04-18T00:27:04.127Z,1008.57
2023-04-18T00:28:04.237Z,1008.59
2023-04-18T00:29:04.274Z,1008.59
2023-04-18T00:30:04.366Z,1008.56
2023-04-18T00:31:04.463Z,1008.53
2023-04-18T00:32:04.511Z,1008.62
2023-04-18T00:33:04.630Z,1008.60
2023-04-18T00:34:04.700Z,1008.57
2023-04-18T00:35:04.796Z,1008.58
2023-04-18T00:36:04.885Z,1008.54
2023-04-18T00:37:04.918Z,1008.58
2023-04-18T00:38:04.990Z,1008.57
2023-04-18T00:39:05.052Z,1008.55
2023-04-18T00:40:05.116Z,1008.59
2023-04-18T00:41:05.232Z,1008.54
2023-04-18T00:42:05.274Z,1008.52
2023-04-18T00:43:05.348Z,1008.56
2023-04-18T00:44:05.437Z,1008.55
2023-04-18T00:45:05.492Z,1008.53
2023-04-18T00:46:05.660Z,1008.53
2023-04-18T00:47:05.661Z,1008.52
2023-04-18T00:48:05.801Z,1008.53
2023-04-18T00:49:05.826Z,1008.53
2023-04-18T00:50:05.905Z,1008.54
2023-04-18T00:51:05.979Z,1008.54
2023-04-18T00:52:06.047Z,1008.53
2023-04-18T00:53:06.124Z,1008.52
2023-04-18T00:54:06.203Z,1008.54
2023-04-18T00:55:06.278Z,1008.57
2023-04-18T00:56:06.373Z,1008.57
2023-04-18T00:57:06.412Z,1008.57
2023-04-18T00:58:06.498Z,1008.60
2023-04-18T00:59:06.578Z,1008.58
2023-04-18T01:00:06.660Z,1008.55
2023-04-18T01:01:06.779Z,1008.56
2023-04-18T01:02:06.857Z,1008.58
2023-04-18T01:03:07.064Z,1008.61
2023-04-18T01:04:07.042Z,1008.59
2023-04-18T01:05:07.055Z,1008.56
2023-04-18T01:06:07.163Z,1008.58
2023-04-18T01:07:07.205Z,1008.54
2023-04-18T01:08:07.302Z,1008.57
2023-04-18T01:09:07.376Z,1008.60
2023-04-18T01:10:07.462Z,1008.57
2023-04-18T01:11:07.566Z,1008.54
2023-04-18T01:12:07.695Z,1008.56
2023-04-18T01:13:07.698Z,1008.54
2023-04-18T01:14:07.799Z,1008.49
2023-04-18T01:15:07.879Z,1008.52
2023-04-18T01:16:08.016Z,1008.51
2023-04-18T01:17:08.040Z,1008.52
2023-04-18T01:18:08.114Z,1008.49
2023-04-18T01:19:08.182Z,1008.54
2023-04-18T01:20:08.277Z,1008.53
2023-04-18T01:21:08.375Z,1008.52
2023-04-18T01:22:08.458Z,1008.47
2023-04-18T01:23:08.524Z,1008.50
2023-04-18T01:24:08.637Z,1008.48
2023-04-18T01:25:08.682Z,1008.45
2023-04-18T01:26:08.829Z,1008.47
2023-04-18T01:27:08.862Z,1008.42
2023-04-18T01:28:08.962Z,1008.40
2023-04-18T01:29:08.998Z,1008.42
2023-04-18T01:30:09.090Z,1008.39
2023-04-18T01:31:09.208Z,1008.41
2023-04-18T01:32:09.255Z,1008.41
2023-04-18T01:33:09.334Z,1008.40
2023-04-18T01:34:09.420Z,1008.38
2023-04-18T01:35:09.556Z,1008.35
2023-04-18T01:36:09.620Z,1008.34
2023-04-18T01:37:09.689Z,1008.39
2023-04-18T01:38:09.781Z,1008.41
2023-04-18T01:39:09.857Z,1008.34
2023-04-18T01:40:09.974Z,1008.36
2023-04-18T01:41:10.030Z,1008.38
2023-04-18T01:42:10.073Z,1008.35
2023-04-18T01:43:10.161Z,1008.35
2023-04-18T01:44:10.262Z,1008.35
2023-04-18T01:45:10.344Z,1008.35
2023-04-18T01:46:10.504Z,1008.32
2023-04-18T01:47:10.512Z,1008.34
2023-04-18T01:48:10.618Z,1008.34
2023-04-18T01:49:10.676Z,1008.35
2023-04-18T01:50:10.812Z,1008.36
2023-04-18T01:51:10.868Z,1008.35
2023-04-18T01:52:10.924Z,1008.35
2023-04-18T01:53:11.002Z,1008.32
2023-04-18T01:54:11.153Z,1008.33
2023-04-18T01:55:11.214Z,1008.33
2023-04-18T01:56:11.279Z,1008.33
2023-04-18T01:57:11.344Z,1008.35
2023-04-18T01:58:11.442Z,1008.39
2023-04-18T01:59:11.525Z,1008.34
2023-04-18T02:00:11.596Z,1008.36
2023-04-18T02:01:11.690Z,1008.33
2023-04-18T02:02:11.828Z,1008.32
2023-04-18T02:03:11.945Z,1008.34
2023-04-18T02:04:12.119Z,1008.34
2023-04-18T02:05:12.043Z,1008.35
2023-04-18T02:06:12.078Z,1008.34
2023-04-18T02:07:12.143Z,1008.32
2023-04-18T02:08:12.228Z,1008.37
2023-04-18T02:09:12.290Z,1008.35
2023-04-18T02:10:12.380Z,1008.36
2023-04-18T02:11:12.467Z,1008.37
2023-04-18T02:12:12.538Z,1008.33
2023-04-18T02:13:12.610Z,1008.33
2023-04-18T02:14:12.976Z,1008.32
2023-04-18T02:15:12.805Z,1008.30
2023-04-18T02:16:12.960Z,1008.31
2023-04-18T02:17:12.956Z,1008.32
2023-04-18T02:18:13.020Z,1008.33
2023-04-18T02:19:13.088Z,1008.29
2023-04-18T02:20:13.174Z,1008.30
2023-04-18T02:21:13.249Z,1008.35
2023-04-18T02:22:13.325Z,1008.32
2023-04-18T02:23:13.402Z,1008.32
2023-04-18T02:24:13.650Z,1008.28
2023-04-18T02:25:13.594Z,1008.29
2023-04-18T02:26:13.700Z,1008.28
2023-04-18T02:27:13.754Z,1008.30
2023-04-18T02:28:13.804Z,1008.26
2023-04-18T02:29:13.904Z,1008.27
2023-04-18T02:30:13.976Z,1008.30
2023-04-18T02:31:14.148Z,1008.28
2023-04-18T02:32:14.142Z,1008.31
2023-04-18T02:33:14.253Z,1008.26
2023-04-18T02:34:14.621Z,1008.26
2023-04-18T02:35:14.407Z,1008.26
2023-04-18T02:36:14.510Z,1008.25
2023-04-18T02:37:14.609Z,1008.24
2023-04-18T02:38:14.648Z,1008.22
2023-04-18T02:39:14.753Z,1008.23
2023-04-18T02:40:14.770Z,1008.23
2023-04-18T02:41:14.876Z,1008.27
2023-04-18T02:42:14.954Z,1008.25
2023-04-18T02:43:15.044Z,1008.28
2023-04-18T02:44:15.326Z,1008.26
2023-04-18T02:45:15.200Z,1008.23
2023-04-18T02:46:15.380Z,1008.29
2023-04-18T02:47:15.353Z,1008.27
2023-04-18T02:48:15.516Z,1008.30
2023-04-18T02:49:15.519Z,1008.28
2023-04-18T02:50:15.571Z,1008.27
2023-04-18T02:51:15.660Z,1008.29
2023-04-18T02:52:15.743Z,1008.29
2023-04-18T02:53:15.830Z,1008.31
2023-04-18T02:54:16.094Z,1008.31
2023-04-18T02:55:16.116Z,1008.32
2023-04-18T02:56:16.133Z,1008.34
2023-04-18T02:57:16.167Z,1008.31
2023-04-18T02:58:16.266Z,1008.29
2023-04-18T02:59:16.356Z,1008.31
2023-04-18T03:00:16.472Z,1008.31
2023-04-18T03:01:16.610Z,1008.28
2023-04-18T03:02:16.676Z,1008.30
2023-04-18T03:03:16.739Z,1008.32
2023-04-18T03:04:16.907Z,1008.30
2023-04-18T03:05:16.869Z,1008.31
2023-04-18T03:06:16.954Z,1008.30
2023-04-18T03:07:17.012Z,1008.28
2023-04-18T03:08:17.085Z,1008.29
2023-04-18T03:09:17.158Z,1008.27
2023-04-18T03:10:17.236Z,1008.29
2023-04-18T03:11:17.302Z,1008.32
2023-04-18T03:12:17.391Z,1008.28
2023-04-18T03:13:17.485Z,1008.32
2023-04-18T03:14:17.557Z,1008.32
2023-04-18T03:15:17.652Z,1008.29
2023-04-18T03:16:17.750Z,1008.34
2023-04-18T03:17:17.780Z,1008.35
2023-04-18T03:18:17.867Z,1008.31
2023-04-18T03:19:17.933Z,1008.31
2023-04-18T03:20:18.038Z,1008.30
2023-04-18T03:21:18.099Z,1008.30
2023-04-18T03:22:18.153Z,1008.34
2023-04-18T03:23:18.235Z,1008.32
2023-04-18T03:24:18.385Z,1008.32
2023-04-18T03:25:18.417Z,1008.31
2023-04-18T03:26:18.510Z,1008.30
2023-04-18T03:27:18.560Z,1008.33
2023-04-18T03:28:18.654Z,1008.29
2023-04-18T03:29:18.724Z,1008.39
2023-04-18T03:30:18.820Z,1008.32
2023-04-18T03:31:18.963Z,1008.35
2023-04-18T03:32:19.135Z,1008.28
2023-04-18T03:33:19.058Z,1008.33
2023-04-18T03:34:19.123Z,1008.32
2023-04-18T03:35:19.215Z,1008.32
2023-04-18T03:36:19.331Z,1008.29
2023-04-18T03:37:19.380Z,1008.34
2023-04-18T03:38:19.492Z,1008.31
2023-04-18T03:39:19.569Z,1008.33
2023-04-18T03:40:19.660Z,1008.36
2023-04-18T03:41:19.770Z,1008.35
2023-04-18T03:42:19.834Z,1008.37
2023-04-18T03:43:19.894Z,1008.32
2023-04-18T03:44:20.005Z,1008.36
2023-04-18T03:45:20.070Z,1008.37
2023-04-18T03:46:20.194Z,1008.33
2023-04-18T03:47:20.262Z,1008.35
2023-04-18T03:48:20.305Z,1008.35
2023-04-18T03:49:20.371Z,1008.35
2023-04-18T03:50:20.483Z,1008.33
2023-04-18T03:51:20.571Z,1008.34
2023-04-18T03:52:20.633Z,1008.33
2023-04-18T03:53:20.715Z,1008.35
2023-04-18T03:54:20.831Z,1008.35
2023-04-18T03:55:20.893Z,1008.34
2023-04-18T03:56:21.022Z,1008.38
2023-04-18T03:57:21.057Z,1008.34
2023-04-18T03:58:22.617Z,1008.38
2023-04-18T03:59:21.238Z,1008.40
2023-04-18T04:00:21.339Z,1008.37
2023-04-18T04:01:21.416Z,1008.37
2023-04-18T04:02:21.674Z,1008.34
2023-04-18T04:03:21.625Z,1008.37
2023-04-18T04:04:21.728Z,1008.35
2023-04-18T04:05:21.714Z,1008.37
2023-04-18T04:06:23.406Z,1008.38
2023-04-18T04:07:21.898Z,1008.38
2023-04-18T04:08:21.968Z,1008.41
2023-04-18T04:09:22.036Z,1008.43
2023-04-18T04:10:22.127Z,1008.40
2023-04-18T04:11:22.202Z,1008.40
2023-04-18T04:12:22.332Z,1008.42
2023-04-18T04:13:22.393Z,1008.42
2023-04-18T04:14:22.494Z,1008.40
2023-04-18T04:15:22.596Z,1008.45
2023-04-18T04:16:22.773Z,1008.46
2023-04-18T04:17:22.808Z,1008.46
2023-04-18T04:18:22.851Z,1008.42
2023-04-18T04:19:22.904Z,1008.45
2023-04-18T04:20:23.033Z,1008.47
2023-04-18T04:21:23.066Z,1008.48
2023-04-18T04:22:23.159Z,1008.44
2023-04-18T04:23:23.233Z,1008.51
2023-04-18T04:24:23.329Z,1008.52
2023-04-18T04:25:23.390Z,1008.49
2023-04-18T04:26:23.493Z,1008.50
2023-04-18T04:27:23.565Z,1008.56
2023-04-18T04:28:23.638Z,1008.55
2023-04-18T04:29:23.689Z,1008.57
2023-04-18T04:30:23.768Z,1008.61
2023-04-18T04:31:23.820Z,1008.59
2023-04-18T04:32:23.967Z,1008.63
2023-04-18T04:33:23.980Z,1008.60
2023-04-18T04:34:24.062Z,1008.60
2023-04-18T04:35:24.179Z,1008.61
2023-04-18T04:36:24.281Z,1008.60
2023-04-18T04:37:24.375Z,1008.59
2023-04-18T04:38:24.463Z,1008.61
2023-04-18T04:39:24.544Z,1008.61
2023-04-18T04:40:24.600Z,1008.61
2023-04-18T04:41:24.688Z,1008.67
2023-04-18T04:42:24.799Z,1008.67
2023-04-18T04:43:24.832Z,1008.67
2023-04-18T04:44:24.970Z,1008.66
2023-04-18T04:45:24.994Z,1008.66
2023-04-18T04:46:25.163Z,1008.69
2023-04-18T04:47:25.218Z,1008.71
2023-04-18T04:48:25.260Z,1008.69
2023-04-18T04:49:25.320Z,1008.69
2023-04-18T04:50:25.500Z,1008.71
2023-04-18T04:51:25.548Z,1008.72
2023-04-18T04:52:25.618Z,1008.75
2023-04-18T04:53:25.680Z,1008.73
2023-04-18T04:54:25.769Z,1008.80
2023-04-18T04:55:25.848Z,1008.78
2023-04-18T04:56:25.944Z,1008.84
2023-04-18T04:57:26.046Z,1008.79
2023-04-18T04:58:26.123Z,1008.80
2023-04-18T04:59:26.207Z,1008.88
2023-04-18T05:00:26.293Z,1008.86
2023-04-18T05:01:26.465Z,1008.90
2023-04-18T05:02:26.565Z,1008.91
2023-04-18T05:03:26.740Z,1008.88
2023-04-18T05:04:26.848Z,1008.91
2023-04-18T05:05:26.735Z,1008.88
2023-04-18T05:06:26.813Z,1008.90
2023-04-18T05:07:26.923Z,1008.90
2023-04-18T05:08:26.981Z,1008.93
2023-04-18T05:09:27.069Z,1008.96
2023-04-18T05:10:27.240Z,1008.95
2023-04-18T05:11:27.220Z,1008.98
2023-04-18T05:12:27.327Z,1008.99
2023-04-18T05:13:27.392Z,1009.00
2023-04-18T05:14:27.490Z,1008.98
2023-04-18T05:15:27.572Z,1008.98
2023-04-18T05:16:27.691Z,1009.00
2023-04-18T05:17:27.792Z,1008.97
2023-04-18T05:18:27.875Z,1009.01
2023-04-18T05:19:27.943Z,1009.00
2023-04-18T05:20:28.035Z,1009.02
2023-04-18T05:21:28.114Z,1008.98
2023-04-18T05:22:28.229Z,1008.96
2023-04-18T05:23:28.302Z,1009.01
2023-04-18T05:24:28.470Z,1009.05
2023-04-18T05:25:28.474Z,1009.08
2023-04-18T05:26:28.578Z,1009.09
2023-04-18T05:27:28.659Z,1009.09
2023-04-18T05:28:28.715Z,1009.14
2023-04-18T05:29:28.779Z,1009.13
2023-04-18T05:30:28.876Z,1009.10
2023-04-18T05:31:29.081Z,1009.09
2023-04-18T05:32:29.088Z,1009.13
2023-04-18T05:33:29.129Z,1009.14
2023-04-18T05:34:29.182Z,1009.12
2023-04-18T05:35:29.246Z,1009.14
2023-04-18T05:36:29.361Z,1009.15
2023-04-18T05:37:29.430Z,1009.18
2023-04-18T05:38:29.504Z,1009.12
2023-04-18T05:39:29.587Z,1009.16
2023-04-18T05:40:29.693Z,1009.18
2023-04-18T05:41:29.788Z,1009.19
2023-04-18T05:42:29.891Z,1009.16
2023-04-18T05:43:29.935Z,1009.18
2023-04-18T05:44:30.037Z,1009.19
2023-04-18T05:45:30.125Z,1009.18
2023-04-18T05:46:30.241Z,1009.23
2023-04-18T05:47:30.422Z,1009.21
2023-04-18T05:48:30.391Z,1009.19
2023-04-18T05:49:30.462Z,1009.22
2023-04-18T05:50:30.539Z,1009.23
2023-04-18T05:51:30.619Z,1009.26
2023-04-18T05:52:30.724Z,1009.25
2023-04-18T05:53:30.779Z,1009.22
2023-04-18T05:54:30.876Z,1009.31
2023-04-18T05:55:30.934Z,1009.29
2023-04-18T05:56:31.073Z,1009.23
2023-04-18T05:57:31.141Z,1009.27
2023-04-18T05:58:31.198Z,1009.27
2023-04-18T05:59:31.285Z,1009.27
2023-04-18T06:00:31.496Z,1009.27
2023-04-18T06:01:31.437Z,1009.28
2023-04-18T06:02:31.701Z,1009.26
2023-04-18T06:03:31.793Z,1009.26
2023-04-18T06:04:31.904Z,1009.26
2023-04-18T06:05:32.190Z,1009.27
2023-04-18T06:06:31.806Z,1009.28
2023-04-18T06:07:31.918Z,1009.26
2023-04-18T06:08:31.950Z,1009.28
2023-04-18T06:09:32.015Z,1009.21
2023-04-18T06:10:32.097Z,1009.20
2023-04-18T06:11:32.147Z,1009.23
2023-04-18T06:12:32.267Z,1009.28
2023-04-18T06:13:32.325Z,1009.25
2023-04-18T06:14:32.439Z,1009.23
2023-04-18T06:15:32.472Z,1009.25
2023-04-18T06:16:32.595Z,1009.22
2023-04-18T06:17:32.702Z,1009.30
2023-04-18T06:18:32.782Z,1009.26
2023-04-18T06:19:32.814Z,1009.30
2023-04-18T06:20:32.916Z,1009.31
2023-04-18T06:21:32.948Z,1009.33
2023-04-18T06:22:33.061Z,1009.30
2023-04-18T06:23:33.113Z,1009.41
2023-04-18T06:24:33.198Z,1009.49
2023-04-18T06:25:33.269Z,1009.49
2023-04-18T06:26:33.360Z,1009.50
2023-04-18T06:27:33.473Z,1009.44
2023-04-18T06:28:33.520Z,1009.45
2023-04-18T06:29:33.771Z,1009.47
2023-04-18T06:30:33.689Z,1009.47
2023-04-18T06:31:33.793Z,1009.45
2023-04-18T06:32:33.888Z,1009.46
2023-04-18T06:33:33.915Z,1009.45
2023-04-18T06:34:33.975Z,1009.43
2023-04-18T06:35:34.086Z,1009.45
2023-04-18T06:36:34.142Z,1009.46
2023-04-18T06:37:34.301Z,1009.42
2023-04-18T06:38:34.330Z,1009.40
2023-04-18T06:39:34.412Z,1009.48
2023-04-18T06:40:34.487Z,1009.48
2023-04-18T06:41:34.553Z,1009.45
2023-04-18T06:42:34.623Z,1009.46
2023-04-18T06:43:34.696Z,1009.42
2023-04-18T06:44:34.773Z,1009.47
2023-04-18T06:45:34.914Z,1009.44
2023-04-18T06:46:34.979Z,1009.46
2023-04-18T06:47:35.143Z,1009.46
2023-04-18T06:48:35.135Z,1009.40
2023-04-18T06:49:35.244Z,1009.45
2023-04-18T06:50:35.306Z,1009.41
2023-04-18T06:51:35.398Z,1009.43
2023-04-18T06:52:35.508Z,1009.43
2023-04-18T06:53:35.556Z,1009.45
2023-04-18T06:54:35.634Z,1009.45
2023-04-18T06:55:35.733Z,1009.41
2023-04-18T06:56:36.610Z,1009.46
2023-04-18T06:57:35.928Z,1009.43
2023-04-18T06:58:35.995Z,1009.48
2023-04-18T06:59:36.088Z,1009.46
2023-04-18T07:00:36.157Z,1009.46
2023-04-18T07:01:36.261Z,1009.41
2023-04-18T07:02:36.483Z,1009.44
2023-04-18T07:03:36.625Z,1009.45
2023-04-18T07:04:36.520Z,1009.47
2023-04-18T07:05:36.581Z,1009.41
2023-04-18T07:06:36.656Z,1009.42
2023-04-18T07:07:36.769Z,1009.43
2023-04-18T07:08:36.813Z,1009.45
2023-04-18T07:09:36.895Z,1009.50
2023-04-18T07:10:36.982Z,1009.45
2023-04-18T07:11:37.059Z,1009.52
2023-04-18T07:12:37.172Z,1009.47
2023-04-18T07:13:37.212Z,1009.51
2023-04-18T07:14:37.263Z,1009.51
2023-04-18T07:15:37.347Z,1009.56
2023-04-18T07:16:37.448Z,1009.56
2023-04-18T07:17:37.561Z,1009.53
2023-04-18T07:18:38.536Z,1009.54
2023-04-18T07:19:37.694Z,1009.62
2023-04-18T07:20:37.773Z,1009.59
2023-04-18T07:21:37.854Z,1009.59
2023-04-18T07:22:37.961Z,1009.61
2023-04-18T07:23:38.003Z,1009.59
2023-04-18T07:24:38.084Z,1009.57
2023-04-18T07:25:38.177Z,1009.54
2023-04-18T07:26:38.257Z,1009.59
2023-04-18T07:27:38.402Z,1009.58
2023-04-18T07:28:38.418Z,1009.62
2023-04-18T07:29:38.531Z,1009.62
2023-04-18T07:30:38.615Z,1009.61
2023-04-18T07:31:38.675Z,1009.62
2023-04-18T07:32:38.888Z,1009.62
2023-04-18T07:33:38.867Z,1009.64
2023-04-18T07:34:38.937Z,1009.35
2023-04-18T07:35:39.020Z,1009.37
2023-04-18T07:36:39.094Z,1009.64
2023-04-18T07:37:39.212Z,1009.71
2023-04-18T07:38:39.238Z,1009.68
2023-04-18T07:39:39.324Z,1009.69
2023-04-18T07:40:39.427Z,1009.28
2023-04-18T07:41:39.496Z,1009.36
2023-04-18T07:42:39.614Z,1009.63
2023-04-18T07:43:39.659Z,1009.55
2023-04-18T07:44:39.736Z,1009.34
2023-04-18T07:45:39.832Z,1009.45
2023-04-18T07:46:40.003Z,1009.44
2023-04-18T07:47:40.102Z,1009.59
2023-04-18T07:48:40.079Z,1009.38
2023-04-18T07:49:40.157Z,1009.35
2023-04-18T07:50:40.239Z,1009.43
2023-04-18T07:51:40.318Z,1009.48
2023-04-18T07:52:40.408Z,1009.40
2023-04-18T07:53:40.480Z,1009.42
2023-04-18T07:54:40.555Z,1009.44
2023-04-18T07:55:40.632Z,1009.42
2023-04-18T07:56:40.696Z,1009.45
2023-04-18T07:57:40.878Z,1009.45
2023-04-18T07:58:40.887Z,1009.46
2023-04-18T07:59:40.975Z,1009.45
2023-04-18T08:00:41.041Z,1009.46
2023-04-18T08:01:41.129Z,1009.48
2023-04-18T08:02:41.538Z,1009.47
2023-04-18T08:03:41.377Z,1009.45
2023-04-18T08:04:41.519Z,1009.46
2023-04-18T08:05:41.517Z,1009.50
2023-04-18T08:06:41.545Z,1009.49
2023-04-18T08:07:41.647Z,1009.46
2023-04-18T08:08:41.708Z,1009.56
2023-04-18T08:09:41.779Z,1009.76
2023-04-18T08:10:41.860Z,1009.55
2023-04-18T08:11:41.929Z,1009.46
2023-04-18T08:12:42.015Z,1009.54
2023-04-18T08:13:42.099Z,1009.57
2023-04-18T08:14:42.167Z,1009.55
2023-04-18T08:15:42.328Z,1009.58
2023-04-18T08:16:42.369Z,1009.55
2023-04-18T08:17:42.520Z,1009.66
2023-04-18T08:18:42.514Z,1009.58
2023-04-18T08:19:42.585Z,1009.58
2023-04-18T08:20:42.670Z,1009.56
2023-04-18T08:21:42.757Z,1009.59
2023-04-18T08:23:01.304Z,1009.60
2023-04-18T08:23:42.938Z,1009.61
2023-04-18T08:24:57.210Z,1009.72
2023-04-18T08:25:43.126Z,1009.60
2023-04-18T08:26:43.213Z,1009.64
2023-04-18T08:27:43.336Z,1009.63
2023-04-18T08:28:45.973Z,1009.60
2023-04-18T08:29:43.460Z,1009.66
2023-04-18T08:30:43.532Z,1009.65
2023-04-18T08:31:43.695Z,1009.66
2023-04-18T08:32:43.785Z,1009.69
2023-04-18T08:33:43.800Z,1009.71
2023-04-18T08:34:43.837Z,1009.74
2023-04-18T08:35:43.963Z,1009.72
2023-04-18T08:36:44.089Z,1009.63
2023-04-18T08:37:44.102Z,1009.71
2023-04-18T08:38:44.171Z,1009.77
2023-04-18T08:39:44.258Z,1009.72
2023-04-18T08:40:44.317Z,1009.70
2023-04-18T08:41:44.431Z,1009.70
2023-04-18T08:42:44.514Z,1009.75
2023-04-18T08:43:44.574Z,1009.79
2023-04-18T08:44:44.636Z,1009.73
2023-04-18T08:45:44.835Z,1009.76
2023-04-18T08:46:44.835Z,1009.77
2023-04-18T08:47:44.996Z,1009.72
2023-04-18T08:48:45.014Z,1009.78
2023-04-18T08:49:45.094Z,1009.76
2023-04-18T08:50:45.177Z,1009.75
2023-04-18T08:51:45.261Z,1009.73
2023-04-18T08:52:45.346Z,1009.77
2023-04-18T08:53:45.440Z,1009.76
2023-04-18T08:54:45.514Z,1009.73
2023-04-18T08:55:45.612Z,1009.71
2023-04-18T08:56:45.690Z,1009.73
2023-04-18T08:57:45.793Z,1009.70
2023-04-18T08:58:45.863Z,1009.70
2023-04-18T08:59:47.189Z,1009.72
2023-04-18T09:00:46.023Z,1009.67
2023-04-18T09:01:46.216Z,1009.76
2023-04-18T09:02:46.269Z,1009.76
2023-04-18T09:03:46.303Z,1009.74
2023-04-18T09:04:46.351Z,1009.73
2023-04-18T09:05:46.418Z,1009.69
2023-04-18T09:06:46.490Z,1009.77
2023-04-18T09:07:46.599Z,1009.69
2023-04-18T09:08:46.622Z,1009.70
2023-04-18T09:09:46.719Z,1009.72
2023-04-18T09:10:46.934Z,1009.70
2023-04-18T09:11:46.883Z,1009.69
2023-04-18T09:12:46.964Z,1009.67
2023-04-18T09:13:47.044Z,1009.70
2023-04-18T09:14:47.144Z,1009.71
2023-04-18T09:15:47.205Z,1009.69
2023-04-18T09:16:47.300Z,1009.64
2023-04-18T09:17:47.377Z,1009.63
2023-04-18T09:18:47.378Z,1009.64
2023-04-18T09:19:47.468Z,1009.69
2023-04-18T09:20:47.570Z,1009.64
2023-04-18T09:21:47.636Z,1009.62
2023-04-18T09:22:47.734Z,1009.66
2023-04-18T09:23:47.807Z,1009.65
2023-04-18T09:24:47.870Z,1009.62
2023-04-18T09:25:48.006Z,1009.67
2023-04-18T09:26:48.023Z,1009.74
2023-04-18T09:27:48.164Z,1009.62
2023-04-18T09:28:48.208Z,1009.63
2023-04-18T09:29:48.306Z,1009.61
2023-04-18T09:30:48.443Z,1009.70
2023-04-18T09:31:48.455Z,1009.72
2023-04-18T09:32:48.566Z,1009.72
2023-04-18T09:33:48.607Z,1009.77
2023-04-18T09:34:48.678Z,1009.76
2023-04-18T09:35:48.766Z,1009.74
2023-04-18T09:36:48.894Z,1009.76
2023-04-18T09:37:49.001Z,1009.76
2023-04-18T09:38:49.002Z,1009.76
2023-04-18T09:39:49.086Z,1009.75
2023-04-18T09:40:49.173Z,1009.77
2023-04-18T09:41:49.239Z,1009.70
2023-04-18T09:42:49.329Z,1009.69
2023-04-18T09:43:49.412Z,1009.67
2023-04-18T09:44:49.473Z,1009.75
2023-04-18T09:45:49.595Z,1009.69
2023-04-18T09:46:49.707Z,1009.68
2023-04-18T09:47:49.806Z,1009.66
2023-04-18T09:48:49.807Z,1009.73
2023-04-18T09:49:49.880Z,1009.69
2023-04-18T09:50:49.971Z,1009.68
2023-04-18T09:51:50.050Z,1009.69
2023-04-18T09:52:50.152Z,1009.68
2023-04-18T09:53:50.291Z,1009.69
2023-04-18T09:54:50.284Z,1009.71
2023-04-18T09:55:50.367Z,1009.65
2023-04-18T09:56:50.434Z,1009.62
2023-04-18T09:57:50.531Z,1009.68
2023-04-18T09:58:50.570Z,1009.52
2023-04-18T09:59:50.649Z,1009.54
2023-04-18T10:00:50.734Z,1009.54
2023-04-18T10:01:50.947Z,1009.62
2023-04-18T10:02:51.059Z,1009.51
2023-04-18T10:03:51.056Z,1009.58
2023-04-18T10:04:51.190Z,1009.52
2023-04-18T10:05:51.266Z,1009.43
2023-04-18T10:06:51.239Z,1009.29
2023-04-18T10:07:51.356Z,1009.27
2023-04-18T10:08:51.383Z,1009.33
2023-04-18T10:09:51.471Z,1009.46
2023-04-18T10:10:51.561Z,1009.33
2023-04-18T10:11:51.643Z,1009.35
2023-04-18T10:12:51.732Z,1009.35
2023-04-18T10:13:51.802Z,1009.36
2023-04-18T10:14:51.870Z,1009.38
2023-04-18T10:15:51.991Z,1009.43
2023-04-18T10:16:52.012Z,1009.39
2023-04-18T10:18:03.317Z,1009.46
2023-04-18T10:18:52.168Z,1009.31
2023-04-18T10:19:52.249Z,1009.38
2023-04-18T10:20:52.304Z,1009.42
2023-04-18T10:21:52.387Z,1009.41
2023-04-18T10:22:52.474Z,1009.38
2023-04-18T10:23:52.548Z,1009.25
2023-04-18T10:24:52.616Z,1009.34
2023-04-18T10:25:52.704Z,1009.29
2023-04-18T10:26:52.808Z,1009.35
2023-04-18T10:27:52.878Z,1009.38
2023-04-18T10:28:53.473Z,1009.33
2023-04-18T10:29:53.052Z,1009.36
2023-04-18T10:30:53.059Z,1009.37
2023-04-18T10:31:53.210Z,1009.35
2023-04-18T10:32:53.266Z,1009.31
2023-04-18T10:34:18.479Z,1009.30
2023-04-18T10:34:53.438Z,1009.29
2023-04-18T10:35:53.507Z,1009.27
2023-04-18T10:36:53.571Z,1009.29
2023-04-18T10:37:53.672Z,1009.33
2023-04-18T10:38:53.735Z,1009.31
2023-04-18T10:39:53.861Z,1009.27
2023-04-18T10:40:53.898Z,1009.30
2023-04-18T10:41:53.978Z,1009.31
2023-04-18T10:42:54.082Z,1009.32
2023-04-18T10:43:54.171Z,1009.35
2023-04-18T10:44:54.260Z,1009.36
2023-04-18T10:45:54.333Z,1009.32
2023-04-18T10:46:54.469Z,1009.34
2023-04-18T10:47:54.584Z,1009.33
2023-04-18T10:48:54.606Z,1009.32
2023-04-18T10:49:54.671Z,1009.32
2023-04-18T10:50:54.755Z,1009.28
2023-04-18T10:51:54.864Z,1009.25
2023-04-18T10:52:54.919Z,1009.24
2023-04-18T10:53:54.977Z,1009.22
2023-04-18T10:54:56.938Z,1009.24
2023-04-18T10:55:55.128Z,1009.22
2023-04-18T10:56:55.213Z,1009.15
2023-04-18T10:57:55.281Z,1009.17
2023-04-18T10:58:55.357Z,1009.23
2023-04-18T10:59:55.430Z,1009.21
2023-04-18T11:00:55.541Z,1009.24
2023-04-18T11:01:55.620Z,1009.16
2023-04-18T11:02:55.842Z,1009.14
2023-04-18T11:03:55.810Z,1009.17
2023-04-18T11:04:55.816Z,1009.22
2023-04-18T11:05:55.884Z,1009.23
2023-04-18T11:06:55.980Z,1009.23
2023-04-18T11:07:56.094Z,1009.20
2023-04-18T11:08:56.123Z,1009.15
2023-04-18T11:09:56.190Z,1009.18
2023-04-18T11:10:56.269Z,1009.18
2023-04-18T11:11:56.343Z,1009.16
2023-04-18T11:12:56.530Z,1009.09
2023-04-18T11:13:56.500Z,1009.18
2023-04-18T11:14:56.576Z,1009.22
2023-04-18T11:15:56.657Z,1009.17
2023-04-18T11:16:56.766Z,1009.16
2023-04-18T11:17:56.887Z,1009.10
2023-04-18T11:18:56.923Z,1009.12
2023-04-18T11:19:56.993Z,1009.11
2023-04-18T11:20:57.067Z,1009.08
2023-04-18T11:21:57.149Z,1009.12
2023-04-18T11:22:57.277Z,1009.13
2023-04-18T11:23:57.346Z,1009.17
2023-04-18T11:24:57.378Z,1009.15
2023-04-18T11:25:57.429Z,1009.12
2023-04-18T11:26:57.538Z,1009.03
2023-04-18T11:27:57.650Z,1009.03
2023-04-18T11:28:57.761Z,1009.02
2023-04-18T11:29:57.772Z,1009.04
2023-04-18T11:30:57.850Z,1009.02
2023-04-18T11:31:58.809Z,1009.06
2023-04-18T11:32:58.110Z,1009.01
2023-04-18T11:33:58.126Z,1008.99
2023-04-18T11:34:58.194Z,1009.02
2023-04-18T11:35:58.279Z,1008.95
2023-04-18T11:36:58.370Z,1008.98
2023-04-18T11:37:58.453Z,1008.98
2023-04-18T11:38:58.532Z,1008.95
2023-04-18T11:39:58.611Z,1008.99
2023-04-18T11:40:58.688Z,1008.92
2023-04-18T11:41:58.753Z,1009.01
2023-04-18T11:42:58.925Z,1008.98
2023-04-18T11:43:58.923Z,1008.95
2023-04-18T11:44:59.017Z,1008.97
2023-04-18T11:45:59.129Z,1008.97
2023-04-18T11:46:59.190Z,1009.03
2023-04-18T11:47:59.328Z,1009.00
2023-04-18T11:48:59.431Z,1009.03
2023-04-18T11:49:59.454Z,1009.01
2023-04-18T11:50:59.532Z,1009.02
2023-04-18T11:51:59.608Z,1009.03
2023-04-18T11:52:59.710Z,1008.99
2023-04-18T11:53:59.786Z,1009.00
2023-04-18T11:54:59.875Z,1008.98
2023-04-18T11:55:59.965Z,1008.99
2023-04-18T11:57:00.049Z,1009.00
2023-04-18T11:58:00.204Z,1009.03
2023-04-18T11:59:00.277Z,1008.95
2023-04-18T12:00:00.307Z,1008.99
2023-04-18T12:01:00.393Z,1008.96
2023-04-18T12:02:14.837Z,1009.07
2023-04-18T12:03:00.697Z,1009.06
2023-04-18T12:04:01.060Z,1009.06
2023-04-18T12:05:01.014Z,1009.03
2023-04-18T12:06:00.878Z,1009.06